createdAt,value
2018-09-19T00:00:11.290Z,1008.69
2018-09-19T00:01:11.006Z,1008.68
2018-09-19T00:02:11.793Z,1008.67
2018-09-19T00:03:10.906Z,1008.70
2018-09-19T00:04:10.884Z,1008.72
2018-09-19T00:05:10.968Z,1008.69
2018-09-19T00:06:11.122Z,1008.64
2018-09-19T00:07:10.854Z,1008.67
2018-09-19T00:08:10.801Z,1008.69
2018-09-19T00:09:10.871Z,1008.69
2018-09-19T00:10:10.910Z,1008.66
2018-09-19T00:11:10.797Z,1008.62
2018-09-19T00:12:11.115Z,1008.66
2018-09-19T00:13:10.772Z,1008.67
2018-09-19T00:14:10.968Z,1008.67
2018-09-19T00:15:10.753Z,1008.65
2018-09-19T00:16:10.681Z,1008.60
2018-09-19T00:17:10.722Z,1008.63
2018-09-19T00:18:11.198Z,1008.60
2018-09-19T00:19:10.936Z,1008.63
2018-09-19T00:20:10.798Z,1008.61
2018-09-19T00:21:10.612Z,1008.62
2018-09-19T00:22:10.685Z,1008.61
2018-09-19T00:23:11.067Z,1008.61
2018-09-19T00:24:10.956Z,1008.62
2018-09-19T00:25:10.621Z,1008.64
2018-09-19T00:26:10.627Z,1008.63
2018-09-19T00:27:10.657Z,1008.67
2018-09-19T00:28:10.519Z,1008.66
2018-09-19T00:29:10.700Z,1008.68
2018-09-19T00:30:10.969Z,1008.62
2018-09-19T00:31:10.800Z,1008.64
2018-09-19T00:32:11.143Z,1008.63
2018-09-19T00:33:10.543Z,1008.66
2018-09-19T00:34:10.515Z,1008.68
2018-09-19T00:35:10.474Z,1008.65
2018-09-19T00:36:10.860Z,1008.66
2018-09-19T00:37:10.391Z,1008.63
2018-09-19T00:38:10.446Z,1008.67
2018-09-19T00:39:10.421Z,1008.70
2018-09-19T00:40:10.363Z,1008.61
2018-09-19T00:41:10.497Z,1008.62
2018-09-19T00:42:10.679Z,1008.67
2018-09-19T00:43:10.320Z,1008.70
2018-09-19T00:44:10.296Z,1008.73
2018-09-19T00:46:10.337Z,1008.71
2018-09-19T00:47:10.311Z,1008.71
2018-09-19T00:48:10.437Z,1008.73
2018-09-19T00:49:10.648Z,1008.69
2018-09-19T00:50:10.382Z,1008.70
2018-09-19T00:51:10.249Z,1008.69
2018-09-19T00:52:10.197Z,1008.69
2018-09-19T00:53:10.411Z,1008.68
2018-09-19T00:54:10.264Z,1008.71
2018-09-19T00:55:10.373Z,1008.69
2018-09-19T00:56:10.479Z,1008.71
2018-09-19T00:57:10.267Z,1008.69
2018-09-19T00:58:10.261Z,1008.71
2018-09-19T00:59:10.364Z,1008.70
2018-09-19T01:00:10.132Z,1008.70
2018-09-19T01:01:10.208Z,1008.71
2018-09-19T01:02:10.113Z,1008.71
2018-09-19T01:03:10.509Z,1008.71
2018-09-19T01:04:10.094Z,1008.73
2018-09-19T01:05:10.254Z,1008.76
2018-09-19T01:06:10.150Z,1008.76
2018-09-19T01:07:10.032Z,1008.75
2018-09-19T01:08:10.117Z,1008.73
2018-09-19T01:09:09.994Z,1008.74
2018-09-19T01:10:10.314Z,1008.71
2018-09-19T01:11:10.082Z,1008.71
2018-09-19T01:12:09.975Z,1008.72
2018-09-19T01:13:09.973Z,1008.68
2018-09-19T01:14:10.028Z,1008.65
2018-09-19T01:15:09.937Z,1008.65
2018-09-19T01:16:09.902Z,1008.68
2018-09-19T01:17:10.236Z,1008.68
2018-09-19T01:18:09.891Z,1008.69
2018-09-19T01:19:09.843Z,1008.67
2018-09-19T01:20:10.012Z,1008.69
2018-09-19T01:21:09.885Z,1008.65
2018-09-19T01:22:09.826Z,1008.70
2018-09-19T01:23:09.812Z,1008.70
2018-09-19T01:24:10.086Z,1008.69
2018-09-19T01:25:09.772Z,1008.69
2018-09-19T01:26:09.760Z,1008.69
2018-09-19T01:27:09.702Z,1008.67
2018-09-19T01:28:09.730Z,1008.69
2018-09-19T01:29:10.014Z,1008.68
2018-09-19T01:30:09.667Z,1008.69
2018-09-19T01:31:10.038Z,1008.68
2018-09-19T01:32:09.687Z,1008.71
2018-09-19T01:33:09.722Z,1008.76
2018-09-19T01:34:09.766Z,1008.76
2018-09-19T01:35:09.634Z,1008.80
2018-09-19T01:36:09.625Z,1008.84
2018-09-19T01:39:09.876Z,1008.90
2018-09-19T01:40:09.621Z,1008.91
2018-09-19T01:41:09.547Z,1008.92
2018-09-19T01:42:09.864Z,1008.95
2018-09-19T01:43:09.472Z,1008.97
2018-09-19T01:44:09.557Z,1008.99
2018-09-19T01:45:09.789Z,1008.97
2018-09-19T01:46:10.244Z,1009.00
2018-09-19T01:47:09.580Z,1009.00
2018-09-19T01:48:09.560Z,1008.99
2018-09-19T01:49:09.442Z,1008.98
2018-09-19T01:50:09.518Z,1008.98
2018-09-19T01:51:09.752Z,1008.95
2018-09-19T01:52:09.447Z,1008.98
2018-09-19T01:53:09.377Z,1008.99
2018-09-19T01:54:09.308Z,1009.02
2018-09-19T01:55:09.375Z,1009.04
2018-09-19T01:56:09.478Z,1009.06
2018-09-19T01:57:09.920Z,1009.06
2018-09-19T01:58:09.492Z,1009.02
2018-09-19T01:59:09.678Z,1009.05
2018-09-19T02:00:09.436Z,1009.02
2018-09-19T02:01:09.359Z,1009.05
2018-09-19T02:02:09.258Z,1009.06
2018-09-19T02:03:09.687Z,1009.04
2018-09-19T02:04:09.322Z,1009.06
2018-09-19T02:05:09.205Z,1009.06
2018-09-19T02:06:09.277Z,1009.06
2018-09-19T02:07:09.179Z,1009.06
2018-09-19T02:08:09.225Z,1009.04
2018-09-19T02:09:09.446Z,1009.05
2018-09-19T02:11:09.267Z,1009.10
2018-09-19T02:12:09.044Z,1009.09
2018-09-19T02:13:09.037Z,1009.07
2018-09-19T02:14:09.067Z,1009.10
2018-09-19T02:16:09.478Z,1009.08
2018-09-19T02:17:09.141Z,1009.09
2018-09-19T02:18:09.046Z,1009.09
2018-09-19T02:19:09.257Z,1009.06
2018-09-19T02:20:09.087Z,1009.09
2018-09-19T02:21:09.115Z,1009.08
2018-09-19T02:22:09.076Z,1009.13
2018-09-19T02:23:09.361Z,1009.10
2018-09-19T02:24:08.921Z,1009.14
2018-09-19T02:25:08.872Z,1009.13
2018-09-19T02:26:08.905Z,1009.15
2018-09-19T02:27:09.110Z,1009.14
2018-09-19T02:28:09.066Z,1009.19
2018-09-19T02:29:08.906Z,1009.16
2018-09-19T02:30:09.176Z,1009.16
2018-09-19T02:31:09.080Z,1009.19
2018-09-19T02:32:08.820Z,1009.18
2018-09-19T02:33:08.806Z,1009.20
2018-09-19T02:34:08.809Z,1009.20
2018-09-19T02:35:08.907Z,1009.20
2018-09-19T02:36:08.769Z,1009.17
2018-09-19T02:37:09.033Z,1009.16
2018-09-19T02:38:08.741Z,1009.16
2018-09-19T02:39:08.650Z,1009.17
2018-09-19T02:40:08.694Z,1009.18
2018-09-19T02:41:08.845Z,1009.15
2018-09-19T02:42:08.668Z,1009.16
2018-09-19T02:43:08.640Z,1009.17
2018-09-19T02:44:09.028Z,1009.18
2018-09-19T02:46:08.640Z,1009.21
2018-09-19T02:47:08.582Z,1009.22
2018-09-19T02:48:08.678Z,1009.17
2018-09-19T02:49:08.535Z,1009.19
2018-09-19T02:50:09.340Z,1009.21
2018-09-19T02:51:08.830Z,1009.20
2018-09-19T02:52:08.470Z,1009.24
2018-09-19T02:53:08.546Z,1009.24
2018-09-19T02:54:08.459Z,1009.28
2018-09-19T02:55:08.599Z,1009.28
2018-09-19T02:56:08.553Z,1009.28
2018-09-19T02:57:08.512Z,1009.27
2018-09-19T02:58:08.744Z,1009.27
2018-09-19T02:59:08.561Z,1009.29
2018-09-19T03:00:08.561Z,1009.23
2018-09-19T03:02:08.713Z,1009.28
2018-09-19T03:03:08.348Z,1009.27
2018-09-19T03:04:08.661Z,1009.25
2018-09-19T03:05:08.321Z,1009.26
2018-09-19T03:06:08.583Z,1009.27
2018-09-19T03:07:08.446Z,1009.30
2018-09-19T03:08:08.403Z,1009.34
2018-09-19T03:09:08.427Z,1009.33
2018-09-19T03:10:08.711Z,1009.34
2018-09-19T03:11:08.492Z,1009.28
2018-09-19T03:12:08.616Z,1009.30
2018-09-19T03:13:08.174Z,1009.34
2018-09-19T03:14:08.216Z,1009.36
2018-09-19T03:16:08.765Z,1009.34
2018-09-19T03:17:08.344Z,1009.34
2018-09-19T03:18:08.158Z,1009.36
2018-09-19T03:19:08.196Z,1009.38
2018-09-19T03:20:08.247Z,1009.35
2018-09-19T03:21:08.128Z,1009.36
2018-09-19T03:22:08.458Z,1009.38
2018-09-19T03:23:08.979Z,1009.39
2018-09-19T03:24:08.071Z,1009.40
2018-09-19T03:25:08.428Z,1009.38
2018-09-19T03:26:08.094Z,1009.37
2018-09-19T03:27:08.039Z,1009.39
2018-09-19T03:28:08.460Z,1009.39
2018-09-19T03:29:08.090Z,1009.43
2018-09-19T03:30:08.404Z,1009.48
2018-09-19T03:31:07.959Z,1009.47
2018-09-19T03:32:07.925Z,1009.47
2018-09-19T03:33:07.959Z,1009.51
2018-09-19T03:34:08.248Z,1009.56
2018-09-19T03:35:08.166Z,1009.51
2018-09-19T03:36:08.259Z,1009.54
2018-09-19T03:37:09.307Z,1009.55
2018-09-19T03:39:07.833Z,1009.55
2018-09-19T03:42:07.844Z,1009.57
2018-09-19T03:43:07.796Z,1009.56
2018-09-19T03:44:07.835Z,1009.56
2018-09-19T03:45:07.747Z,1009.54
2018-09-19T03:46:08.505Z,1009.54
2018-09-19T03:47:08.105Z,1009.59
2018-09-19T03:48:07.730Z,1009.59
2018-09-19T03:50:08.288Z,1009.56
2018-09-19T03:51:07.632Z,1009.56
2018-09-19T03:52:07.792Z,1009.56
2018-09-19T03:53:07.729Z,1009.61
2018-09-19T03:54:08.145Z,1009.63
2018-09-19T03:55:07.651Z,1009.63
2018-09-19T03:56:07.580Z,1009.65
2018-09-19T03:57:07.618Z,1009.64
2018-09-19T03:58:07.716Z,1009.63
2018-09-19T03:59:07.616Z,1009.68
2018-09-19T04:00:07.965Z,1009.67
2018-09-19T04:01:07.922Z,1009.68
2018-09-19T04:02:07.527Z,1009.70
2018-09-19T04:03:07.625Z,1009.72
2018-09-19T04:04:07.530Z,1009.70
2018-09-19T04:05:07.557Z,1009.68
2018-09-19T04:06:07.443Z,1009.70
2018-09-19T04:07:07.502Z,1009.72
2018-09-19T04:10:07.692Z,1009.72
2018-09-19T04:11:07.379Z,1009.69
2018-09-19T04:12:08.021Z,1009.74
2018-09-19T04:14:07.340Z,1009.76
2018-09-19T04:15:07.266Z,1009.82
2018-09-19T04:16:07.376Z,1009.79
2018-09-19T04:17:09.167Z,1009.79
2018-09-19T04:18:07.491Z,1009.85
2018-09-19T04:19:07.252Z,1009.84
2018-09-19T04:20:07.193Z,1009.80
2018-09-19T04:22:07.267Z,1009.82
2018-09-19T04:23:07.351Z,1009.80
2018-09-19T04:24:07.501Z,1009.81
2018-09-19T04:25:07.497Z,1009.80
2018-09-19T04:26:07.311Z,1009.75
2018-09-19T04:27:08.091Z,1009.78
2018-09-19T04:28:07.107Z,1009.82
2018-09-19T04:29:07.950Z,1009.84
2018-09-19T04:31:07.901Z,1009.82
2018-09-19T04:32:07.334Z,1009.84
2018-09-19T04:33:07.824Z,1009.84
2018-09-19T04:34:07.187Z,1009.81
2018-09-19T04:35:07.445Z,1009.83
2018-09-19T04:36:07.015Z,1009.77
2018-09-19T04:37:07.968Z,1009.79
2018-09-19T04:38:07.081Z,1009.76
2018-09-19T04:40:06.904Z,1009.77
2018-09-19T04:41:07.098Z,1009.76
2018-09-19T04:42:07.388Z,1009.75
2018-09-19T04:44:07.129Z,1009.80
2018-09-19T04:46:07.321Z,1009.76
2018-09-19T04:47:07.197Z,1009.78
2018-09-19T04:48:06.791Z,1009.80
2018-09-19T04:49:07.138Z,1009.77
2018-09-19T04:50:07.094Z,1009.79
2018-09-19T04:51:07.308Z,1009.76
2018-09-19T04:53:06.720Z,1009.76
2018-09-19T04:54:06.833Z,1009.72
2018-09-19T04:55:07.067Z,1009.74
2018-09-19T04:57:08.996Z,1009.72
2018-09-19T04:58:06.621Z,1009.74
2018-09-19T04:59:07.419Z,1009.73
2018-09-19T05:01:06.590Z,1009.79
2018-09-19T05:02:06.561Z,1009.77
2018-09-19T05:03:07.245Z,1009.80
2018-09-19T05:04:06.511Z,1009.81
2018-09-19T05:05:06.915Z,1009.79
2018-09-19T05:06:06.494Z,1009.78
2018-09-19T05:08:06.468Z,1009.76
2018-09-19T05:09:06.400Z,1009.78
2018-09-19T05:10:07.149Z,1009.77
2018-09-19T05:11:06.823Z,1009.81
2018-09-19T05:12:06.350Z,1009.79
2018-09-19T05:14:06.382Z,1009.84
2018-09-19T05:15:06.384Z,1009.84
2018-09-19T05:16:07.343Z,1009.86
2018-09-19T05:17:06.424Z,1009.87
2018-09-19T05:18:06.713Z,1009.87
2018-09-19T05:19:06.749Z,1009.94
2018-09-19T05:20:06.241Z,1009.95
2018-09-19T05:21:06.904Z,1009.99
2018-09-19T05:22:06.825Z,1009.99
2018-09-19T05:23:06.238Z,1010.03
2018-09-19T05:25:06.418Z,1010.03
2018-09-19T05:26:06.538Z,1010.05
2018-09-19T05:28:06.908Z,1010.03
2018-09-19T05:29:06.508Z,1010.04
2018-09-19T05:31:06.231Z,1010.05
2018-09-19T05:32:06.744Z,1010.03
2018-09-19T05:33:06.387Z,1010.05
2018-09-19T05:34:06.611Z,1010.03
2018-09-19T05:35:06.322Z,1010.02
2018-09-19T05:36:06.072Z,1010.04
2018-09-19T05:37:06.019Z,1010.04
2018-09-19T05:38:06.271Z,1010.02
2018-09-19T05:39:05.969Z,1010.03
2018-09-19T05:40:06.367Z,1010.05
2018-09-19T05:41:06.211Z,1010.09
2018-09-19T05:42:05.937Z,1010.10
2018-09-19T05:43:06.008Z,1010.15
2018-09-19T05:44:05.926Z,1010.13
2018-09-19T05:45:05.917Z,1010.16
2018-09-19T05:46:06.639Z,1010.16
2018-09-19T05:48:06.007Z,1010.16
2018-09-19T05:49:06.129Z,1010.16
2018-09-19T05:50:05.917Z,1010.18
2018-09-19T05:51:10.986Z,1010.21
2018-09-19T05:52:07.115Z,1010.24
2018-09-19T05:54:05.728Z,1010.27
2018-09-19T05:55:05.733Z,1010.30
2018-09-19T05:56:05.667Z,1010.34
2018-09-19T05:57:06.014Z,1010.34
2018-09-19T06:00:05.805Z,1010.38
2018-09-19T06:01:05.651Z,1010.39
2018-09-19T06:02:06.089Z,1010.37
2018-09-19T06:03:05.935Z,1010.39
2018-09-19T06:04:05.622Z,1010.42
2018-09-19T06:06:05.636Z,1010.40
2018-09-19T06:09:05.529Z,1010.40
2018-09-19T06:10:05.495Z,1010.42
2018-09-19T06:12:05.602Z,1010.47
2018-09-19T06:14:06.067Z,1010.51
2018-09-19T06:15:05.804Z,1010.51
2018-09-19T06:16:06.738Z,1010.55
2018-09-19T06:18:05.986Z,1010.57
2018-09-19T06:19:05.920Z,1010.54
2018-09-19T06:20:05.435Z,1010.54
2018-09-19T06:22:05.464Z,1010.56
2018-09-19T06:23:06.344Z,1010.58
2018-09-19T06:24:05.330Z,1010.56
2018-09-19T06:25:05.655Z,1010.57
2018-09-19T06:26:05.776Z,1010.57
2018-09-19T06:27:05.366Z,1010.52
2018-09-19T06:28:05.652Z,1010.52
2018-09-19T06:30:05.280Z,1010.50
2018-09-19T06:31:06.691Z,1010.50
2018-09-19T06:34:05.858Z,1010.51
2018-09-19T06:38:06.676Z,1010.50
2018-09-19T06:39:05.803Z,1010.53
2018-09-19T06:40:05.590Z,1010.51
2018-09-19T06:42:06.098Z,1010.47
2018-09-19T06:43:05.179Z,1010.49
2018-09-19T06:44:05.428Z,1010.49
2018-09-19T06:45:05.008Z,1010.50
2018-09-19T06:47:05.370Z,1010.47
2018-09-19T06:48:04.969Z,1010.48
2018-09-19T06:49:05.121Z,1010.43
2018-09-19T06:51:05.344Z,1010.50
2018-09-19T06:53:04.895Z,1010.45
2018-09-19T06:54:05.304Z,1010.45
2018-09-19T06:55:04.821Z,1010.43
2018-09-19T06:56:04.867Z,1010.43
2018-09-19T06:57:05.236Z,1010.40
2018-09-19T06:58:04.972Z,1010.39
2018-09-19T06:59:04.874Z,1010.44
2018-09-19T07:00:04.821Z,1010.42
2018-09-19T07:01:04.765Z,1010.41
2018-09-19T07:02:04.740Z,1010.42
2018-09-19T07:03:05.053Z,1010.38
2018-09-19T07:04:04.746Z,1010.43
2018-09-19T07:06:04.700Z,1010.44
2018-09-19T07:07:04.705Z,1010.46
2018-09-19T07:08:04.777Z,1010.39
2018-09-19T07:09:04.976Z,1010.44
2018-09-19T07:10:04.669Z,1010.39
2018-09-19T07:11:04.638Z,1010.40
2018-09-19T07:12:04.799Z,1010.47
2018-09-19T07:13:04.983Z,1010.48
2018-09-19T07:14:04.692Z,1010.51
2018-09-19T07:15:05.361Z,1010.52
2018-09-19T07:16:04.684Z,1010.51
2018-09-19T07:17:04.814Z,1010.52
2018-09-19T07:19:04.546Z,1010.56
2018-09-19T07:20:04.528Z,1010.57
2018-09-19T07:23:04.843Z,1010.62
2018-09-19T07:24:04.498Z,1010.59
2018-09-19T07:26:04.523Z,1010.63
2018-09-19T07:27:04.422Z,1010.59
2018-09-19T07:28:04.368Z,1010.63
2018-09-19T07:29:04.709Z,1010.59
2018-09-19T07:30:04.390Z,1010.58
2018-09-19T07:31:04.632Z,1010.58
2018-09-19T07:32:04.310Z,1010.59
2018-09-19T07:33:04.652Z,1010.56
2018-09-19T07:34:04.369Z,1010.62
2018-09-19T07:35:04.612Z,1010.58
2018-09-19T07:36:04.399Z,1010.58
2018-09-19T07:37:04.327Z,1010.69
2018-09-19T07:38:04.344Z,1010.59
2018-09-19T07:39:04.674Z,1010.63
2018-09-19T07:40:04.331Z,1010.65
2018-09-19T07:42:04.505Z,1010.67
2018-09-19T07:43:04.207Z,1010.60
2018-09-19T07:44:04.170Z,1010.62
2018-09-19T07:45:04.217Z,1010.63
2018-09-19T07:46:04.190Z,1010.60
2018-09-19T07:47:04.203Z,1010.62
2018-09-19T07:48:04.469Z,1010.60
2018-09-19T07:49:04.168Z,1010.59
2018-09-19T07:50:04.140Z,1010.58
2018-09-19T07:51:04.123Z,1010.60
2018-09-19T07:53:04.104Z,1010.67
2018-09-19T07:54:04.405Z,1010.65
2018-09-19T07:55:04.083Z,1010.62
2018-09-19T07:56:04.080Z,1010.60
2018-09-19T07:57:04.160Z,1010.59
2018-09-19T07:58:03.989Z,1010.55
2018-09-19T07:59:04.033Z,1010.58
2018-09-19T08:00:04.342Z,1010.52
2018-09-19T08:01:03.981Z,1010.53
2018-09-19T08:02:03.998Z,1010.54
2018-09-19T08:03:04.095Z,1010.48
2018-09-19T08:04:04.029Z,1010.47
2018-09-19T08:05:03.978Z,1010.47
2018-09-19T08:06:04.258Z,1010.51
2018-09-19T08:07:03.982Z,1010.49
2018-09-19T08:08:03.980Z,1010.51
2018-09-19T08:09:04.086Z,1010.49
2018-09-19T08:10:03.859Z,1010.53
2018-09-19T08:11:03.915Z,1010.50
2018-09-19T08:12:04.258Z,1010.52
2018-09-19T08:13:03.894Z,1010.57
2018-09-19T08:14:03.895Z,1010.56
2018-09-19T08:15:03.948Z,1010.58
2018-09-19T08:16:03.784Z,1010.62
2018-09-19T08:17:03.963Z,1010.58
2018-09-19T08:18:04.128Z,1010.59
2018-09-19T08:19:03.811Z,1010.59
2018-09-19T08:20:03.748Z,1010.61
2018-09-19T08:21:03.791Z,1010.62
2018-09-19T08:22:03.719Z,1010.59
2018-09-19T08:23:03.933Z,1010.59
2018-09-19T08:24:04.047Z,1010.61
2018-09-19T08:25:04.152Z,1010.63
2018-09-19T08:26:10.025Z,1010.66
2018-09-19T08:27:03.839Z,1010.70
2018-09-19T08:28:03.678Z,1010.63
2018-09-19T08:29:03.736Z,1010.59
2018-09-19T08:30:05.031Z,1010.72
2018-09-19T08:31:03.692Z,1010.64
2018-09-19T08:32:03.672Z,1010.64
2018-09-19T08:33:03.876Z,1010.66
2018-09-19T08:34:03.639Z,1010.66
2018-09-19T08:35:03.627Z,1010.73
2018-09-19T08:37:03.570Z,1010.73
2018-09-19T08:38:03.589Z,1010.75
2018-09-19T08:39:03.626Z,1010.72
2018-09-19T08:40:03.526Z,1010.72
2018-09-19T08:42:03.851Z,1010.70
2018-09-19T08:43:03.566Z,1010.75
2018-09-19T08:44:03.541Z,1010.78
2018-09-19T08:45:03.541Z,1010.74
2018-09-19T08:46:04.065Z,1010.77
2018-09-19T08:47:04.139Z,1011.01
2018-09-19T08:48:03.790Z,1010.76
2018-09-19T08:49:03.508Z,1010.80
2018-09-19T08:50:03.467Z,1010.76
2018-09-19T08:51:03.552Z,1010.80
2018-09-19T08:53:03.447Z,1010.85
2018-09-19T08:55:03.452Z,1010.89
2018-09-19T08:56:03.415Z,1010.91
2018-09-19T08:57:03.760Z,1010.91
2018-09-19T08:58:03.395Z,1010.89
2018-09-19T08:59:03.386Z,1010.85
2018-09-19T09:01:03.771Z,1010.87
2018-09-19T09:02:03.450Z,1010.84
2018-09-19T09:03:03.508Z,1010.87
2018-09-19T09:04:03.297Z,1010.92
2018-09-19T09:05:03.342Z,1010.91
2018-09-19T09:06:03.331Z,1010.91
2018-09-19T09:07:03.614Z,1010.91
2018-09-19T09:08:03.295Z,1010.84
2018-09-19T09:09:03.288Z,1010.82
2018-09-19T09:10:03.278Z,1010.78
2018-09-19T09:11:03.263Z,1010.85
2018-09-19T09:12:03.219Z,1010.86
2018-09-19T09:13:03.564Z,1010.94
2018-09-19T09:14:03.200Z,1011.00
2018-09-19T09:15:03.300Z,1011.07
2018-09-19T09:16:03.173Z,1011.02
2018-09-19T09:17:03.224Z,1011.02
2018-09-19T09:18:03.257Z,1011.06
2018-09-19T09:19:03.485Z,1011.06
2018-09-19T09:20:03.478Z,1011.05
2018-09-19T09:21:03.194Z,1011.01
2018-09-19T09:22:03.107Z,1011.05
2018-09-19T09:23:03.114Z,1011.07
2018-09-19T09:24:03.193Z,1011.07
2018-09-19T09:25:03.446Z,1011.06
2018-09-19T09:26:03.133Z,1011.05
2018-09-19T09:27:03.429Z,1011.04
2018-09-19T09:28:03.187Z,1011.36
2018-09-19T09:29:03.115Z,1011.04
2018-09-19T09:30:03.051Z,1011.03
2018-09-19T09:31:03.416Z,1011.00
2018-09-19T09:32:03.078Z,1011.01
2018-09-19T09:33:03.090Z,1011.07
2018-09-19T09:34:03.070Z,1011.01
2018-09-19T09:35:03.161Z,1011.05
2018-09-19T09:36:03.052Z,1011.04
2018-09-19T09:37:03.393Z,1011.05
2018-09-19T09:38:03.045Z,1011.90
2018-09-19T09:39:03.027Z,1011.11
2018-09-19T09:40:02.973Z,1010.98
2018-09-19T09:41:02.970Z,1010.99
2018-09-19T09:42:03.023Z,1011.03
2018-09-19T09:43:03.304Z,1011.02
2018-09-19T09:44:02.993Z,1010.97
2018-09-19T09:45:02.979Z,1010.96
2018-09-19T09:46:02.963Z,1010.99
2018-09-19T09:47:02.918Z,1010.92
2018-09-19T09:49:03.230Z,1010.95
2018-09-19T09:50:02.981Z,1010.94
2018-09-19T09:51:02.964Z,1010.86
2018-09-19T09:52:02.957Z,1010.89
2018-09-19T09:53:02.922Z,1010.91
2018-09-19T09:55:03.233Z,1010.95
2018-09-19T09:56:02.898Z,1010.98
2018-09-19T09:57:03.013Z,1011.01
2018-09-19T09:58:02.882Z,1011.01
2018-09-19T10:00:02.820Z,1011.04
2018-09-19T10:01:03.995Z,1011.01
2018-09-19T10:02:03.552Z,1011.01
2018-09-19T10:03:04.197Z,1010.98
2018-09-19T10:04:03.435Z,1011.02
2018-09-19T10:05:02.837Z,1011.04
2018-09-19T10:06:08.622Z,1010.98
2018-09-19T10:07:03.133Z,1010.94
2018-09-19T10:09:02.817Z,1011.02
2018-09-19T10:10:02.783Z,1011.01
2018-09-19T10:11:02.814Z,1010.98
2018-09-19T10:12:02.873Z,1010.96
2018-09-19T10:13:03.116Z,1010.96
2018-09-19T10:14:02.731Z,1010.91
2018-09-19T10:16:02.722Z,1011.65
2018-09-19T10:17:02.823Z,1011.63
2018-09-19T10:18:02.788Z,1010.86
2018-09-19T10:19:03.062Z,1010.87
2018-09-19T10:20:02.766Z,1010.81
2018-09-19T10:21:03.066Z,1010.81
2018-09-19T10:22:02.785Z,1010.78
2018-09-19T10:23:02.715Z,1010.84
2018-09-19T10:24:02.790Z,1011.32
2018-09-19T10:25:03.033Z,1010.86
2018-09-19T10:26:02.678Z,1011.44
2018-09-19T10:27:02.825Z,1010.92
2018-09-19T10:28:02.673Z,1010.93
2018-09-19T10:29:02.719Z,1010.92
2018-09-19T10:30:02.722Z,1010.95
2018-09-19T10:31:03.005Z,1010.90
2018-09-19T10:32:02.700Z,1011.40
2018-09-19T10:33:02.801Z,1010.83
2018-09-19T10:34:02.701Z,1010.76
2018-09-19T10:35:02.748Z,1010.82
2018-09-19T10:36:02.830Z,1010.87
2018-09-19T10:37:03.318Z,1010.99
2018-09-19T10:38:02.845Z,1010.88
2018-09-19T10:39:02.701Z,1010.94
2018-09-19T10:40:02.664Z,1010.84
2018-09-19T10:41:02.608Z,1010.94
2018-09-19T10:42:02.728Z,1010.74
2018-09-19T10:44:03.341Z,1010.51
2018-09-19T10:45:02.872Z,1011.14
2018-09-19T10:46:02.649Z,1011.00
2018-09-19T10:48:02.666Z,1010.78
2018-09-19T10:50:03.398Z,1011.00
2018-09-19T10:51:03.228Z,1010.38
2018-09-19T10:52:02.923Z,1010.45
2018-09-19T10:53:03.899Z,1010.52
2018-09-19T10:54:03.246Z,1010.92
2018-09-19T10:55:02.947Z,1010.39
2018-09-19T10:56:02.742Z,1011.05
2018-09-19T10:57:02.700Z,1011.03
2018-09-19T10:58:02.635Z,1011.01
2018-09-19T10:59:02.562Z,1010.95
2018-09-19T11:01:02.838Z,1011.00
2018-09-19T11:02:02.649Z,1011.01
2018-09-19T11:03:02.638Z,1010.36
2018-09-19T11:04:02.824Z,1010.92
2018-09-19T11:05:02.593Z,1011.11
2018-09-19T11:06:02.868Z,1011.03
2018-09-19T11:08:02.873Z,1010.95
2018-09-19T11:09:02.851Z,1010.36
2018-09-19T11:10:02.654Z,1010.68
2018-09-19T11:11:02.496Z,1010.41
2018-09-19T11:12:02.547Z,1011.11
2018-09-19T11:13:02.486Z,1011.09
2018-09-19T11:14:02.857Z,1010.99
2018-09-19T11:15:02.647Z,1010.32
2018-09-19T11:16:02.667Z,1010.83
2018-09-19T11:17:02.559Z,1010.53
2018-09-19T11:18:04.802Z,1010.55
2018-09-19T11:19:02.543Z,1010.44
2018-09-19T11:20:03.488Z,1010.82
2018-09-19T11:21:02.639Z,1010.79
2018-09-19T11:22:02.473Z,1010.26
2018-09-19T11:23:02.534Z,1010.47
2018-09-19T11:24:02.587Z,1010.96
2018-09-19T11:25:02.618Z,1010.95
2018-09-19T11:26:02.437Z,1010.27
2018-09-19T11:28:02.507Z,1010.14
2018-09-19T11:29:02.483Z,1010.70
2018-09-19T11:30:02.497Z,1010.72
2018-09-19T11:31:02.437Z,1010.42
2018-09-19T11:32:02.499Z,1010.61
2018-09-19T11:33:03.170Z,1010.64
2018-09-19T11:34:02.539Z,1010.54
2018-09-19T11:35:02.588Z,1009.98
2018-09-19T11:36:02.482Z,1010.04
2018-09-19T11:37:02.449Z,1010.54
2018-09-19T11:38:02.464Z,1010.53
2018-09-19T11:39:02.885Z,1010.55
2018-09-19T11:40:02.453Z,1010.50
2018-09-19T11:41:02.385Z,1010.48
2018-09-19T11:43:02.426Z,1009.90
2018-09-19T11:50:02.543Z,1010.43
2018-09-19T11:51:02.345Z,1010.41
2018-09-19T11:52:02.348Z,1010.49
2018-09-19T11:53:02.361Z,1010.50
2018-09-19T11:55:02.730Z,1010.41
2018-09-19T11:56:02.337Z,1010.37
2018-09-19T11:57:02.653Z,1010.44
2018-09-19T11:58:02.450Z,1010.41
2018-09-19T12:00:03.986Z,1010.43
2018-09-19T12:02:02.880Z,1010.54
2018-09-19T12:03:02.324Z,1010.57
2018-09-19T12:04:02.286Z,1010.59
2018-09-19T12:05:02.360Z,1010.63
2018-09-19T12:06:02.348Z,1010.71
2018-09-19T12:07:02.331Z,1010.63
2018-09-19T12:08:02.931Z,1010.60
2018-09-19T12:09:02.323Z,1010.74
2018-09-19T12:10:02.347Z,1010.79
2018-09-19T12:11:02.323Z,1010.17
2018-09-19T12:12:02.344Z,1010.67
2018-09-19T12:14:02.683Z,1010.59
2018-09-19T12:15:02.274Z,1010.61
2018-09-19T12:16:02.360Z,1010.63
2018-09-19T12:18:02.278Z,1010.55
2018-09-19T12:19:02.536Z,1010.57
2018-09-19T12:20:02.670Z,1010.48
2018-09-19T12:23:02.429Z,1010.48
2018-09-19T12:24:03.208Z,1010.45
2018-09-19T12:25:02.347Z,1010.42
2018-09-19T12:26:03.093Z,1010.45
2018-09-19T12:27:04.422Z,1010.36
2018-09-19T12:28:03.259Z,1010.30
2018-09-19T12:29:04.156Z,1010.46
2018-09-19T12:30:03.436Z,1010.32
2018-09-19T12:31:02.484Z,1010.37
2018-09-19T12:32:02.839Z,1010.32
2018-09-19T12:33:02.306Z,1010.40
2018-09-19T12:34:02.758Z,1010.19
2018-09-19T12:35:02.221Z,1010.26
2018-09-19T12:36:03.769Z,1010.25
2018-09-19T12:37:02.269Z,1010.20
2018-09-19T12:38:02.951Z,1010.16
2018-09-19T12:39:02.327Z,1010.13
2018-09-19T12:40:02.396Z,1010.10
2018-09-19T12:41:02.316Z,1010.11
2018-09-19T12:42:02.353Z,1010.07
2018-09-19T12:43:02.255Z,1010.05
2018-09-19T12:44:02.690Z,1010.09
2018-09-19T12:45:02.280Z,1010.16
2018-09-19T12:46:02.488Z,1010.05
2018-09-19T12:47:02.178Z,1010.12
2018-09-19T12:48:02.251Z,1010.14
2018-09-19T12:49:02.276Z,1010.13
2018-09-19T12:50:02.646Z,1010.19
2018-09-19T12:52:02.489Z,1010.13
2018-09-19T12:54:02.371Z,1010.10
2018-09-19T12:55:05.696Z,1010.14
2018-09-19T12:56:02.544Z,1010.13
2018-09-19T12:57:02.375Z,1010.09
2018-09-19T12:58:02.173Z,1010.12
2018-09-19T12:59:02.234Z,1010.08
2018-09-19T13:00:02.644Z,1010.06
2018-09-19T13:01:02.353Z,1009.80
2018-09-19T13:02:02.533Z,1010.06
2018-09-19T13:03:02.203Z,1010.04
2018-09-19T13:04:02.202Z,1010.08
2018-09-19T13:05:02.192Z,1010.05
2018-09-19T13:06:02.200Z,1010.15
2018-09-19T13:08:03.265Z,1009.56
2018-09-19T13:09:02.177Z,1010.17
2018-09-19T13:10:02.220Z,1009.64
2018-09-19T13:11:02.340Z,1009.92
2018-09-19T13:12:02.214Z,1009.88
2018-09-19T13:13:02.181Z,1009.50
2018-09-19T13:15:02.956Z,1010.18
2018-09-19T13:16:02.213Z,1010.54
2018-09-19T13:18:02.587Z,1010.71
2018-09-19T13:19:02.198Z,1010.91
2018-09-19T13:20:02.376Z,1009.64
2018-09-19T13:21:02.503Z,1009.51
2018-09-19T13:22:02.111Z,1010.94
2018-09-19T13:23:02.137Z,1010.83
2018-09-19T13:24:02.115Z,1010.67
2018-09-19T13:27:14.227Z,1009.83
2018-09-19T13:30:03.306Z,1010.38
2018-09-19T13:33:02.439Z,1010.17
2018-09-19T13:34:02.392Z,1010.27
2018-09-19T13:35:02.599Z,1010.38
2018-09-19T13:36:02.515Z,1009.21
2018-09-19T13:39:04.118Z,1010.07
2018-09-19T13:40:02.504Z,1009.88
2018-09-19T13:41:02.743Z,1009.16
2018-09-19T13:42:02.528Z,1010.04
2018-09-19T13:43:03.876Z,1009.18
2018-09-19T13:44:02.134Z,1009.95